Time;durP1;ratioP1;P1;durP2;ratioP2;P2;SDS_P1;SDS_P2;PMS_P1;PMS_P2;Temp;Humidity;BMP_temperature;BMP_pressure;BME280_temperature;BME280_humidity;BME280_pressure;Samples;Min_cycle;Max_cycle;Signal;HPM_P1;HPM_P2
2022/01/06 00:01:03;;;;;;;10.35;4.50;;;4.40;99.90;;;;;;5112786;28;20628;-51
2022/01/06 00:03:31;;;;;;;13.68;4.80;;;4.30;99.90;;;;;;5112776;28;20168;-51
2022/01/06 00:05:57;;;;;;;13.55;5.00;;;4.30;99.90;;;;;;5112627;28;20534;-52
2022/01/06 00:08:23;;;;;;;16.00;5.05;;;4.30;99.90;;;;;;5112581;28;20164;-51
2022/01/06 00:10:49;;;;;;;17.00;4.90;;;4.30;99.90;;;;;;5112502;28;20214;-51
2022/01/06 00:13:21;;;;;;;16.23;6.40;;;4.30;99.90;;;;;;5112162;28;20208;-51
2022/01/06 00:18:33;;;;;;;9.98;3.70;;;4.30;99.90;;;;;;5112523;28;20165;-51
2022/01/06 00:23:43;;;;;;;12.68;3.03;;;4.30;99.90;;;;;;5112222;28;20175;-51
2022/01/06 00:26:08;;;;;;;10.63;3.42;;;4.30;99.90;;;;;;5112439;28;20169;-51
2022/01/06 00:28:36;;;;;;;11.60;3.25;;;4.30;99.90;;;;;;5112863;28;20578;-51
2022/01/06 00:31:02;;;;;;;9.85;2.60;;;4.30;99.90;;;;;;5116038;28;20204;-51
2022/01/06 00:33:30;;;;;;;8.95;2.85;;;4.30;99.90;;;;;;5116426;28;20240;-51
2022/01/06 00:35:56;;;;;;;9.20;2.38;;;4.30;99.90;;;;;;5116624;28;20179;-51
2022/01/06 00:38:24;;;;;;;16.85;3.50;;;4.30;99.90;;;;;;5116007;28;20239;-51
2022/01/06 00:40:49;;;;;;;14.57;3.17;;;4.30;99.90;;;;;;5116219;28;20251;-51
2022/01/06 00:43:15;;;;;;;6.97;2.92;;;4.30;99.90;;;;;;5115950;28;20207;-51
2022/01/06 00:45:41;;;;;;;12.95;3.15;;;4.20;99.90;;;;;;5115880;28;20363;-52
2022/01/06 00:48:09;;;;;;;10.43;2.60;;;4.20;99.90;;;;;;5115817;28;20172;-51
2022/01/06 00:50:35;;;;;;;10.52;2.40;;;4.30;99.90;;;;;;5115857;28;20212;-51
2022/01/06 00:53:04;;;;;;;12.82;2.95;;;4.20;99.90;;;;;;5115750;28;20170;-51
2022/01/06 00:55:34;;;;;;;14.90;3.35;;;4.30;99.90;;;;;;5116247;28;20175;-51
2022/01/06 00:58:00;;;;;;;13.93;2.63;;;4.30;99.90;;;;;;5115650;28;20160;-51
2022/01/06 01:00:28;;;;;;;14.60;3.22;;;4.30;99.90;;;;;;5116064;28;20230;-51
2022/01/06 01:02:54;;;;;;;11.15;3.05;;;4.30;99.90;;;;;;5115536;28;20576;-51
2022/01/06 01:05:19;;;;;;;8.23;3.08;;;4.30;99.90;;;;;;5115395;28;20161;-51
2022/01/06 01:07:45;;;;;;;11.98;2.78;;;4.30;99.90;;;;;;5115511;28;20620;-51
2022/01/06 01:10:12;;;;;;;9.05;2.60;;;4.30;99.90;;;;;;5115432;28;20308;-51
2022/01/06 01:12:37;;;;;;;7.05;3.00;;;4.30;99.90;;;;;;5115201;28;20602;-51
2022/01/06 01:15:08;;;;;;;10.57;2.88;;;4.20;99.90;;;;;;5115404;28;20168;-51
2022/01/06 01:17:34;;;;;;;8.55;2.33;;;4.20;99.90;;;;;;5115272;28;20629;-51
2022/01/06 01:20:01;;;;;;;14.00;3.35;;;4.20;99.90;;;;;;5115507;28;20160;-51
2022/01/06 01:22:27;;;;;;;12.02;3.05;;;4.10;99.90;;;;;;5115538;28;20200;-51
2022/01/06 01:24:52;;;;;;;10.27;3.22;;;4.20;99.90;;;;;;5115116;28;20203;-51
2022/01/06 01:27:22;;;;;;;10.70;2.28;;;4.10;99.90;;;;;;5115061;28;20196;-51
2022/01/06 01:29:58;;;;;;;14.88;3.00;;;4.10;99.90;;;;;;5115223;28;20212;-51
2022/01/06 01:32:30;;;;;;;18.20;2.88;;;4.10;99.90;;;;;;5114955;28;20623;-51
2022/01/06 01:35:00;;;;;;;10.07;2.78;;;4.10;99.90;;;;;;5115183;28;20640;-51
2022/01/06 01:37:26;;;;;;;13.00;3.42;;;4.00;99.90;;;;;;5115448;28;20177;-51
2022/01/06 01:39:52;;;;;;;5.20;3.05;;;4.00;99.90;;;;;;5114170;28;20164;-51
2022/01/06 01:42:17;;;;;;;7.50;2.55;;;4.00;99.90;;;;;;5114071;28;20161;-51
2022/01/06 01:44:44;;;;;;;15.90;3.40;;;4.00;99.90;;;;;;5114769;28;20176;-51
2022/01/06 01:47:14;;;;;;;15.88;2.95;;;4.00;99.90;;;;;;5114645;28;20624;-52
2022/01/06 01:49:54;;;;;;;12.70;2.70;;;4.00;99.90;;;;;;5114872;28;20211;-52
2022/01/06 01:52:20;;;;;;;9.43;2.65;;;4.00;99.90;;;;;;5114600;28;20171;-51
2022/01/06 01:54:45;;;;;;;10.10;3.47;;;4.00;99.90;;;;;;5114577;28;20173;-51
2022/01/06 01:57:11;;;;;;;13.73;3.65;;;3.90;99.90;;;;;;5114582;28;20204;-51
2022/01/06 01:59:36;;;;;;;15.85;3.25;;;3.90;99.90;;;;;;5114755;28;20172;-52
2022/01/06 02:02:02;;;;;;;24.38;4.45;;;3.90;99.90;;;;;;5114385;28;20172;-51
2022/01/06 02:04:28;;;;;;;9.45;3.35;;;3.80;99.90;;;;;;5114706;28;20215;-51
2022/01/06 02:06:53;;;;;;;6.35;2.25;;;3.80;99.90;;;;;;5114309;28;20635;-51
2022/01/06 02:09:19;;;;;;;13.15;3.03;;;3.80;99.90;;;;;;5114152;28;20287;-51
2022/01/06 02:11:44;;;;;;;9.27;2.55;;;3.80;99.90;;;;;;5114086;28;20295;-51
2022/01/06 02:14:10;;;;;;;8.13;2.92;;;3.80;99.90;;;;;;5114209;28;20164;-51
2022/01/06 02:16:37;;;;;;;12.32;2.70;;;3.70;99.90;;;;;;5114086;28;20172;-51
2022/01/06 02:19:03;;;;;;;15.07;3.70;;;3.80;99.90;;;;;;5114023;28;20156;-52
2022/01/06 02:21:29;;;;;;;10.63;3.33;;;3.70;99.90;;;;;;5114450;28;20248;-52
2022/01/06 02:23:55;;;;;;;11.95;3.85;;;3.70;99.90;;;;;;5114250;28;20164;-52
2022/01/06 02:26:21;;;;;;;11.90;3.03;;;3.70;99.90;;;;;;5113930;28;20590;-52
2022/01/06 02:28:46;;;;;;;10.30;2.50;;;3.80;99.90;;;;;;5113838;28;20205;-52
2022/01/06 02:31:12;;;;;;;8.77;2.88;;;3.70;99.90;;;;;;5113752;28;20246;-52
2022/01/06 02:33:37;;;;;;;15.45;3.83;;;3.80;99.90;;;;;;5114045;28;20238;-52
2022/01/06 02:36:04;;;;;;;11.32;2.88;;;3.70;99.90;;;;;;5113675;28;20521;-52
2022/01/06 02:38:30;;;;;;;8.40;2.95;;;3.70;99.90;;;;;;5113637;28;20173;-52
2022/01/06 02:40:56;;;;;;;15.40;3.05;;;3.70;99.90;;;;;;5113928;28;20522;-52
2022/01/06 02:43:24;;;;;;;19.00;3.95;;;3.70;99.90;;;;;;5113576;28;20175;-52
2022/01/06 02:45:50;;;;;;;9.13;3.08;;;3.60;99.90;;;;;;5113557;28;20770;-52
2022/01/06 02:48:16;;;;;;;20.70;3.33;;;3.60;99.90;;;;;;5113499;28;20177;-51
2022/01/06 02:50:46;;;;;;;14.95;3.35;;;3.60;99.90;;;;;;5113407;28;20216;-51
2022/01/06 02:53:13;;;;;;;20.05;4.32;;;3.50;99.90;;;;;;5112931;28;20655;-50
2022/01/06 02:55:42;;;;;;;17.60;3.58;;;3.50;99.90;;;;;;5113409;28;20157;-51
2022/01/06 02:58:08;;;;;;;15.52;3.70;;;3.60;99.90;;;;;;5113424;28;20196;-51
2022/01/06 03:00:37;;;;;;;13.95;3.08;;;3.50;99.90;;;;;;5095013;28;20211;-51
2022/01/06 03:03:02;;;;;;;11.38;2.88;;;3.60;99.90;;;;;;5113767;28;20161;-51
2022/01/06 03:05:28;;;;;;;15.75;3.55;;;3.60;99.90;;;;;;5113580;28;20169;-50
2022/01/06 03:07:53;;;;;;;16.70;3.20;;;3.60;99.90;;;;;;5113226;28;20514;-51
2022/01/06 03:10:19;;;;;;;17.55;4.03;;;3.60;99.90;;;;;;5112942;28;20231;-52
2022/01/06 03:12:47;;;;;;;16.38;4.45;;;3.60;99.90;;;;;;5112936;28;20694;-51
2022/01/06 03:15:21;;;;;;;18.60;3.90;;;3.60;99.90;;;;;;5112986;28;20607;-51
2022/01/06 03:17:52;;;;;;;16.77;3.47;;;3.60;99.90;;;;;;5112965;28;20251;-51
2022/01/06 03:20:19;;;;;;;13.35;3.05;;;3.60;99.90;;;;;;5113197;28;20519;-51
2022/01/06 03:22:45;;;;;;;13.25;3.35;;;3.70;99.90;;;;;;5112918;28;20712;-52
2022/01/06 03:25:12;;;;;;;13.15;3.15;;;3.60;99.90;;;;;;5112916;28;20262;-51
2022/01/06 03:27:39;;;;;;;11.88;3.72;;;3.60;99.90;;;;;;5112849;28;20157;-51
2022/01/06 03:30:07;;;;;;;10.13;2.75;;;3.70;99.90;;;;;;5112727;28;20663;-51
2022/01/06 03:32:33;;;;;;;9.93;2.90;;;3.60;99.90;;;;;;5112861;28;20167;-51
2022/01/06 03:34:58;;;;;;;11.57;3.90;;;3.60;99.90;;;;;;5113043;28;20164;-51
2022/01/06 03:37:24;;;;;;;21.73;4.28;;;3.50;99.90;;;;;;5112680;28;20156;-50
2022/01/06 03:39:49;;;;;;;9.65;3.67;;;3.50;99.90;;;;;;5112601;28;20190;-50
2022/01/06 03:42:15;;;;;;;23.02;3.53;;;3.50;99.90;;;;;;5112671;28;20200;-51
2022/01/06 03:44:40;;;;;;;14.45;3.50;;;3.40;99.90;;;;;;5112632;28;20169;-51
2022/01/06 03:47:06;;;;;;;9.45;2.65;;;3.40;99.90;;;;;;5112576;28;20235;-51
2022/01/06 03:49:32;;;;;;;12.60;3.00;;;3.40;99.90;;;;;;5112456;28;20221;-51
2022/01/06 03:51:57;;;;;;;10.65;2.85;;;3.40;99.90;;;;;;5112835;28;20178;-51
2022/01/06 03:54:23;;;;;;;10.45;2.65;;;3.40;99.90;;;;;;5112466;28;20187;-51
2022/01/06 03:56:49;;;;;;;13.52;3.15;;;3.40;99.90;;;;;;5112366;28;20227;-50
2022/01/06 03:59:18;;;;;;;12.02;2.92;;;3.30;99.90;;;;;;5112418;28;20172;-51
2022/01/06 04:01:44;;;;;;;9.32;2.63;;;3.40;99.90;;;;;;5112378;28;20164;-51
2022/01/06 04:04:11;;;;;;;15.68;3.05;;;3.30;99.90;;;;;;5113863;28;20163;-51
2022/01/06 04:06:36;;;;;;;16.58;2.95;;;3.30;99.90;;;;;;5116965;28;20171;-51
2022/01/06 04:09:03;;;;;;;10.90;2.55;;;3.20;99.90;;;;;;5116493;28;20165;-51
2022/01/06 04:11:29;;;;;;;10.95;2.28;;;3.30;99.90;;;;;;5116849;28;20236;-51
2022/01/06 04:13:55;;;;;;;14.73;2.88;;;4.40;99.90;;;;;;5116821;28;20157;-51
2022/01/06 04:16:20;;;;;;;9.77;2.42;;;3.20;99.90;;;;;;5116433;28;20167;-51
2022/01/06 04:18:46;;;;;;;8.70;2.60;;;3.20;99.90;;;;;;5116679;28;20175;-51
2022/01/06 04:21:12;;;;;;;11.35;4.10;;;3.20;99.90;;;;;;5116669;28;20221;-51
2022/01/06 04:23:38;;;;;;;18.17;3.72;;;3.20;99.90;;;;;;5116342;28;20651;-51
2022/01/06 04:26:03;;;;;;;8.90;2.95;;;3.20;99.90;;;;;;5116343;28;20164;-51
2022/01/06 04:28:29;;;;;;;13.82;3.20;;;3.10;99.90;;;;;;5116483;28;20595;-51
2022/01/06 04:30:55;;;;;;;13.45;2.92;;;3.10;99.90;;;;;;5116535;28;20273;-51
2022/01/06 04:33:21;;;;;;;10.88;3.85;;;3.10;99.90;;;;;;5116127;28;20169;-50
2022/01/06 04:35:46;;;;;;;17.73;3.83;;;3.10;99.90;;;;;;5116097;28;20165;-51
2022/01/06 04:38:12;;;;;;;14.45;3.78;;;3.10;99.90;;;;;;5097855;28;20266;-51
2022/01/06 04:40:38;;;;;;;14.98;2.97;;;3.10;99.90;;;;;;5097902;28;20172;-51
2022/01/06 04:43:05;;;;;;;14.30;3.25;;;3.10;99.90;;;;;;5115948;28;20663;-51
2022/01/06 04:45:30;;;;;;;10.70;2.95;;;3.00;99.90;;;;;;5116144;28;20229;-51
2022/01/06 04:47:57;;;;;;;13.50;3.58;;;3.00;99.90;;;;;;5116230;28;20247;-51
2022/01/06 04:50:22;;;;;;;13.23;2.88;;;3.10;99.90;;;;;;5115681;28;20212;-51
2022/01/06 04:52:48;;;;;;;14.43;3.92;;;3.10;99.90;;;;;;5115750;28;20298;-51
2022/01/06 04:55:14;;;;;;;14.65;3.55;;;3.10;99.90;;;;;;5115690;28;20281;-51
2022/01/06 04:57:39;;;;;;;16.25;3.00;;;3.10;99.90;;;;;;5115936;28;20632;-51
2022/01/06 05:00:06;;;;;;;17.90;3.65;;;3.10;99.90;;;;;;5115558;28;20165;-51
2022/01/06 05:02:32;;;;;;;16.30;3.47;;;3.10;99.90;;;;;;5115616;28;20640;-51
2022/01/06 05:04:57;;;;;;;16.55;4.38;;;3.10;99.90;;;;;;5115782;28;20234;-51
2022/01/06 05:07:23;;;;;;;9.60;2.92;;;3.10;99.90;;;;;;5115568;28;20172;-51
2022/01/06 05:09:50;;;;;;;7.88;2.78;;;3.00;99.90;;;;;;5097342;28;20206;-51
2022/01/06 05:12:15;;;;;;;13.38;3.65;;;3.00;99.90;;;;;;5115210;28;20247;-51
2022/01/06 05:14:41;;;;;;;10.80;3.20;;;3.00;99.90;;;;;;5115038;28;20164;-51
2022/01/06 05:17:08;;;;;;;15.02;4.07;;;3.00;99.90;;;;;;5115575;28;20176;-51
2022/01/06 05:19:33;;;;;;;12.88;3.53;;;3.00;99.90;;;;;;5115591;28;20210;-51
2022/01/06 05:21:59;;;;;;;16.30;3.30;;;3.00;99.90;;;;;;5115494;28;20168;-51
2022/01/06 05:24:25;;;;;;;14.60;3.92;;;3.00;99.90;;;;;;5115636;28;20180;-51
2022/01/06 05:26:54;;;;;;;20.08;4.25;;;3.00;99.90;;;;;;5115390;28;20164;-51
2022/01/06 05:29:19;;;;;;;16.40;5.03;;;2.90;99.90;;;;;;5115226;28;20172;-51
2022/01/06 05:31:45;;;;;;;15.07;3.85;;;3.00;99.90;;;;;;5115319;28;20195;-51
2022/01/06 05:34:11;;;;;;;19.27;3.45;;;3.00;99.90;;;;;;5114942;28;20165;-51
2022/01/06 05:36:36;;;;;;;22.10;4.50;;;3.00;99.90;;;;;;5114871;28;20171;-51
2022/01/06 05:39:03;;;;;;;16.95;3.50;;;2.90;99.90;;;;;;5115090;28;20518;-51
2022/01/06 05:41:28;;;;;;;10.88;3.20;;;2.90;99.90;;;;;;5115209;28;20171;-51
2022/01/06 05:43:54;;;;;;;20.67;3.75;;;2.90;99.90;;;;;;5095508;28;20160;-51
2022/01/06 05:46:20;;;;;;;20.90;3.70;;;2.90;99.90;;;;;;5096341;28;20169;-51
2022/01/06 05:48:46;;;;;;;17.20;4.03;;;2.90;99.90;;;;;;5114518;28;20247;-51
2022/01/06 05:51:13;;;;;;;15.15;4.05;;;2.90;99.90;;;;;;5114433;28;20208;-51
2022/01/06 05:53:38;;;;;;;18.52;3.92;;;2.90;99.90;;;;;;5114416;28;20502;-51
2022/01/06 05:56:05;;;;;;;19.95;4.07;;;2.90;99.90;;;;;;5114420;28;20198;-51
2022/01/06 05:58:31;;;;;;;21.92;4.57;;;2.90;99.90;;;;;;5114345;28;20175;-50
2022/01/06 06:00:57;;;;;;;14.30;3.33;;;2.80;99.90;;;;;;5114800;28;20658;-51
2022/01/06 06:03:22;;;;;;;15.50;3.35;;;2.90;99.90;;;;;;5114684;28;20200;-51
2022/01/06 06:05:48;;;;;;;16.08;3.50;;;2.90;99.90;;;;;;5114301;28;20237;-51
2022/01/06 06:08:14;;;;;;;16.67;4.07;;;2.80;99.90;;;;;;5114614;28;20168;-51
2022/01/06 06:10:39;;;;;;;17.48;3.80;;;2.80;99.90;;;;;;5114128;28;20613;-51
2022/01/06 06:13:05;;;;;;;14.73;3.38;;;2.80;99.90;;;;;;5114082;28;20208;-51
2022/01/06 06:15:37;;;;;;;15.05;3.95;;;2.70;99.90;;;;;;5114088;28;20217;-51
2022/01/06 06:18:03;;;;;;;15.40;3.90;;;2.70;99.90;;;;;;5114028;28;20169;-51
2022/01/06 06:20:29;;;;;;;16.90;3.97;;;2.70;99.90;;;;;;5114420;28;20256;-51
2022/01/06 06:22:55;;;;;;;9.10;3.22;;;2.70;99.90;;;;;;5114305;28;20245;-51
2022/01/06 06:25:20;;;;;;;15.52;4.03;;;2.60;99.90;;;;;;5113892;28;20509;-51
2022/01/06 06:27:46;;;;;;;12.10;3.80;;;2.60;99.90;;;;;;5113173;28;20161;-51
2022/01/06 06:30:12;;;;;;;17.98;4.97;;;2.70;99.90;;;;;;5113711;28;20200;-51
2022/01/06 06:32:38;;;;;;;16.58;3.47;;;2.70;99.90;;;;;;5113804;28;20161;-51
2022/01/06 06:35:04;;;;;;;17.02;4.53;;;2.70;99.90;;;;;;5113752;28;20243;-51
2022/01/06 06:37:30;;;;;;;17.95;4.95;;;2.60;99.90;;;;;;5113564;28;20172;-50
2022/01/06 06:39:57;;;;;;;18.45;4.55;;;2.60;99.90;;;;;;5113961;28;20539;-51
2022/01/06 06:42:23;;;;;;;19.33;5.95;;;2.70;99.90;;;;;;5113812;28;20583;-51
2022/01/06 06:44:49;;;;;;;18.40;5.47;;;2.70;99.90;;;;;;5113633;28;20169;-51
2022/01/06 06:47:15;;;;;;;19.40;5.30;;;2.70;99.90;;;;;;5113559;28;20540;-51
2022/01/06 06:49:40;;;;;;;19.88;5.65;;;2.70;99.90;;;;;;5113386;28;20253;-51
2022/01/06 06:52:06;;;;;;;17.15;4.72;;;2.70;99.90;;;;;;5113516;28;20248;-51
2022/01/06 06:54:31;;;;;;;15.45;5.13;;;2.70;99.90;;;;;;5113396;28;20173;-51
2022/01/06 06:56:57;;;;;;;16.67;6.47;;;2.70;99.90;;;;;;5113707;28;20187;-51
2022/01/06 06:59:22;;;;;;;17.92;5.60;;;2.80;99.90;;;;;;5113287;28;20659;-51
2022/01/06 07:01:48;;;;;;;18.17;6.05;;;2.80;99.90;;;;;;5113323;28;20218;-51
2022/01/06 07:04:13;;;;;;;17.50;6.03;;;2.80;99.90;;;;;;5113130;28;20536;-51
2022/01/06 07:06:39;;;;;;;12.88;5.38;;;2.80;99.90;;;;;;5113195;28;20545;-51
2022/01/06 07:09:05;;;;;;;16.92;6.28;;;2.80;99.90;;;;;;5113159;28;20173;-51
2022/01/06 07:11:31;;;;;;;17.52;5.38;;;2.80;99.90;;;;;;5112808;28;20227;-51
2022/01/06 07:13:57;;;;;;;21.65;6.05;;;2.90;99.90;;;;;;5095039;28;20165;-51
2022/01/06 07:16:22;;;;;;;12.45;5.15;;;2.80;99.90;;;;;;5112969;28;20176;-51
2022/01/06 07:18:48;;;;;;;18.33;6.07;;;2.80;99.90;;;;;;5112872;28;20168;-51
2022/01/06 07:21:13;;;;;;;23.73;6.60;;;2.70;99.90;;;;;;5113005;28;20180;-51
2022/01/06 07:23:39;;;;;;;14.70;5.82;;;2.80;99.90;;;;;;5112948;28;20157;-51
2022/01/06 07:26:04;;;;;;;17.13;6.50;;;2.80;99.90;;;;;;5077837;28;20532;-51
2022/01/06 07:28:30;;;;;;;18.10;6.13;;;2.80;99.90;;;;;;5112869;28;20168;-51
2022/01/06 07:30:55;;;;;;;20.23;6.40;;;2.80;99.90;;;;;;5113008;28;20219;-51
2022/01/06 07:33:21;;;;;;;21.00;7.22;;;2.80;99.90;;;;;;5094475;28;20173;-51
2022/01/06 07:35:47;;;;;;;20.70;6.88;;;2.80;99.90;;;;;;5112713;28;20169;-51
2022/01/06 07:38:12;;;;;;;23.75;6.82;;;2.80;99.90;;;;;;5112653;28;20523;-51
2022/01/06 07:40:38;;;;;;;17.77;7.15;;;2.80;99.90;;;;;;5112610;28;20171;-51
2022/01/06 07:43:03;;;;;;;22.27;6.78;;;2.80;99.90;;;;;;5112882;28;20167;-51
2022/01/06 07:45:29;;;;;;;20.08;6.72;;;2.80;99.90;;;;;;5113131;28;20183;-51
2022/01/06 07:48:00;;;;;;;14.80;6.25;;;1.40;99.90;;;;;;5113100;28;20252;-51
2022/01/06 07:50:31;;;;;;;19.50;7.28;;;2.80;99.90;;;;;;5112995;28;20211;-51
2022/01/06 07:52:57;;;;;;;20.75;6.90;;;2.90;99.90;;;;;;5112849;28;20168;-51
2022/01/06 07:55:23;;;;;;;23.95;7.70;;;2.80;99.90;;;;;;5112499;28;20187;-51
2022/01/06 07:57:49;;;;;;;24.35;6.68;;;2.90;99.90;;;;;;5094317;28;20251;-50
2022/01/06 08:00:15;;;;;;;24.02;7.13;;;2.90;99.90;;;;;;5112433;28;20188;-51
2022/01/06 08:02:41;;;;;;;16.38;5.85;;;2.90;99.90;;;;;;5112431;28;20192;-51
2022/01/06 08:05:09;;;;;;;26.63;7.05;;;2.90;99.90;;;;;;5112353;28;20168;-51
2022/01/06 08:07:35;;;;;;;17.45;7.15;;;2.90;99.90;;;;;;5112377;28;20705;-51
2022/01/06 08:10:01;;;;;;;15.40;6.53;;;2.90;99.90;;;;;;5112451;28;20200;-51
2022/01/06 08:12:26;;;;;;;14.50;5.97;;;3.00;99.90;;;;;;5112565;28;20692;-51
2022/01/06 08:14:52;;;;;;;16.00;6.07;;;3.00;99.90;;;;;;5112247;28;20178;-51
2022/01/06 08:17:17;;;;;;;21.33;6.57;;;3.00;99.90;;;;;;5112248;28;20228;-51
2022/01/06 08:19:44;;;;;;;22.70;7.05;;;3.10;99.90;;;;;;5112299;28;20175;-51
2022/01/06 08:22:10;;;;;;;24.10;7.28;;;3.10;99.90;;;;;;5112508;28;20260;-51
2022/01/06 08:24:35;;;;;;;17.48;6.15;;;3.10;99.90;;;;;;5112220;28;20200;-51
2022/01/06 08:27:03;;;;;;;15.20;5.93;;;3.10;99.90;;;;;;5112188;28;20277;-51
2022/01/06 08:29:28;;;;;;;17.45;6.47;;;3.20;99.90;;;;;;5112634;28;20583;-51
2022/01/06 08:31:54;;;;;;;19.65;7.40;;;3.20;99.90;;;;;;5112063;28;20164;-51
2022/01/06 08:34:19;;;;;;;17.48;6.38;;;3.20;99.90;;;;;;5112117;28;20175;-51
2022/01/06 08:36:52;;;;;;;18.05;7.15;;;3.10;99.90;;;;;;5112027;28;20173;-51
2022/01/06 08:39:18;;;;;;;21.65;6.65;;;3.20;99.90;;;;;;5112347;28;20177;-51
2022/01/06 08:41:43;;;;;;;19.05;6.95;;;3.30;99.90;;;;;;5111807;28;20502;-51
2022/01/06 08:44:09;;;;;;;18.70;6.88;;;3.20;99.90;;;;;;5112061;28;20172;-51
2022/01/06 08:46:34;;;;;;;17.75;6.10;;;3.30;99.90;;;;;;5111902;28;20172;-51
2022/01/06 08:49:00;;;;;;;20.77;7.13;;;3.30;99.90;;;;;;5111990;28;20189;-51
2022/01/06 08:51:25;;;;;;;24.40;6.95;;;3.20;99.90;;;;;;5115488;28;20273;-51
2022/01/06 08:53:51;;;;;;;16.20;6.57;;;3.30;99.90;;;;;;5115800;28;20293;-53
2022/01/06 08:56:16;;;;;;;18.02;6.05;;;3.30;99.90;;;;;;5115858;28;20628;-51
2022/01/06 08:58:42;;;;;;;11.98;6.35;;;3.20;99.90;;;;;;5115915;28;20180;-51
2022/01/06 09:01:08;;;;;;;21.35;6.47;;;3.30;99.90;;;;;;5115220;28;20168;-51
2022/01/06 09:03:33;;;;;;;19.58;6.82;;;3.30;99.90;;;;;;5115902;28;20179;-51
2022/01/06 09:06:00;;;;;;;21.77;7.30;;;3.40;99.90;;;;;;5115776;28;20251;-51
2022/01/06 09:08:25;;;;;;;17.02;6.28;;;3.30;99.90;;;;;;5116147;28;20204;-51
2022/01/06 09:10:51;;;;;;;20.55;7.90;;;3.30;99.90;;;;;;5115445;28;20674;-50
2022/01/06 09:13:16;;;;;;;15.93;6.30;;;3.30;99.90;;;;;;5115265;28;20295;-51
2022/01/06 09:15:42;;;;;;;26.00;8.20;;;3.40;99.90;;;;;;5115204;28;20175;-52
2022/01/06 09:18:08;;;;;;;15.02;6.32;;;3.40;99.90;;;;;;5097088;28;20681;-51
2022/01/06 09:20:33;;;;;;;20.17;7.25;;;3.40;99.90;;;;;;5115121;28;20196;-51
2022/01/06 09:22:59;;;;;;;16.85;6.88;;;3.40;99.90;;;;;;5115438;28;20239;-51
2022/01/06 09:25:24;;;;;;;16.20;7.53;;;3.80;99.90;;;;;;5115532;28;20176;-52
2022/01/06 09:27:50;;;;;;;19.83;7.10;;;3.40;99.90;;;;;;5096665;28;20165;-50
2022/01/06 09:30:15;;;;;;;22.05;6.65;;;3.40;99.90;;;;;;5114999;28;20300;-50
2022/01/06 09:32:41;;;;;;;19.50;6.70;;;3.50;99.90;;;;;;5114894;28;20244;-51
2022/01/06 09:35:07;;;;;;;21.98;7.18;;;3.50;99.90;;;;;;5115206;28;20171;-51
2022/01/06 09:37:32;;;;;;;17.48;6.95;;;3.50;99.90;;;;;;5114720;28;20647;-51
2022/01/06 09:39:58;;;;;;;19.00;7.63;;;3.50;99.90;;;;;;5115434;28;20652;-51
2022/01/06 09:42:24;;;;;;;25.52;8.00;;;3.50;99.90;;;;;;5114745;28;20165;-51
2022/01/06 09:44:50;;;;;;;17.00;5.97;;;3.60;99.90;;;;;;5114754;28;20540;-51
2022/01/06 09:47:17;;;;;;;20.95;7.18;;;3.60;99.90;;;;;;5114730;28;20168;-51
2022/01/06 09:49:44;;;;;;;18.95;6.60;;;3.60;99.90;;;;;;5114592;28;20606;-51
2022/01/06 09:52:11;;;;;;;16.05;6.15;;;3.70;99.90;;;;;;5114886;28;20512;-50
2022/01/06 09:54:38;;;;;;;12.20;5.25;;;3.70;99.90;;;;;;5114462;28;20172;-51
2022/01/06 09:57:04;;;;;;;22.35;7.05;;;3.70;99.90;;;;;;5114449;28;20665;-50
2022/01/06 09:59:30;;;;;;;16.23;6.15;;;3.80;99.90;;;;;;5114494;28;20171;-51
2022/01/06 10:01:58;;;;;;;20.70;6.68;;;3.80;99.90;;;;;;5113635;28;20704;-51
2022/01/06 10:04:27;;;;;;;22.52;7.00;;;3.80;99.90;;;;;;5114484;28;20694;-51
2022/01/06 10:07:05;;;;;;;17.80;5.78;;;3.80;99.90;;;;;;5114427;28;20164;-51
2022/01/06 10:09:34;;;;;;;20.52;6.47;;;3.80;99.90;;;;;;5114267;28;20168;-51
2022/01/06 10:11:59;;;;;;;18.90;6.32;;;3.90;99.90;;;;;;5114273;28;20216;-51
2022/01/06 10:14:43;;;;;;;20.38;6.82;;;4.00;99.90;;;;;;5114620;28;20218;-51
2022/01/06 10:17:10;;;;;;;24.00;7.45;;;4.00;99.90;;;;;;5114421;28;20251;-51
2022/01/06 10:19:40;;;;;;;19.02;7.40;;;4.10;99.90;;;;;;5114081;28;20160;-51
2022/01/06 10:22:21;;;;;;;18.17;6.82;;;4.20;99.90;;;;;;5114428;28;20165;-51
2022/01/06 10:24:49;;;;;;;21.00;6.43;;;4.40;99.90;;;;;;5114225;28;20540;-51
2022/01/06 10:27:21;;;;;;;18.58;7.07;;;4.50;99.90;;;;;;5095951;28;20251;-51
2022/01/06 10:29:49;;;;;;;16.65;6.35;;;4.60;99.90;;;;;;5113804;28;20606;-51
2022/01/06 10:32:17;;;;;;;24.52;6.80;;;4.70;99.90;;;;;;5114013;28;20180;-51
2022/01/06 10:34:49;;;;;;;11.80;5.40;;;4.90;99.90;;;;;;5113756;28;20208;-51
2022/01/06 10:37:25;;;;;;;16.77;5.70;;;5.00;99.90;;;;;;5113944;28;20499;-51
2022/01/06 10:39:53;;;;;;;19.30;5.60;;;5.10;99.90;;;;;;5113608;28;20168;-51
2022/01/06 10:42:29;;;;;;;16.60;7.13;;;5.10;99.90;;;;;;5113753;28;20172;-51
2022/01/06 10:44:59;;;;;;;19.45;7.07;;;5.10;99.90;;;;;;5113795;28;20156;-51
2022/01/06 10:47:31;;;;;;;23.08;7.22;;;5.20;99.90;;;;;;5114035;28;20173;-51
2022/01/06 10:50:37;;;;;;;21.38;6.82;;;5.10;99.90;;;;;;5113765;28;20200;-51
2022/01/06 10:53:08;;;;;;;19.90;6.90;;;5.20;99.90;;;;;;5113643;28;20215;-51
2022/01/06 10:55:38;;;;;;;22.95;6.93;;;5.20;99.90;;;;;;5113379;28;20194;-51
2022/01/06 10:58:09;;;;;;;16.65;6.65;;;5.20;99.90;;;;;;5113309;28;20165;-51
2022/01/06 11:00:40;;;;;;;21.58;8.48;;;5.20;99.90;;;;;;5113246;28;20247;-51
2022/01/06 11:03:10;;;;;;;19.20;6.95;;;5.30;99.90;;;;;;5112771;28;20176;-52
2022/01/06 11:05:38;;;;;;;15.18;6.25;;;5.50;99.90;;;;;;5113131;28;20598;-51
2022/01/06 11:08:05;;;;;;;15.38;6.80;;;5.60;99.90;;;;;;5112798;28;20191;-52
2022/01/06 11:10:32;;;;;;;25.67;7.30;;;5.60;99.90;;;;;;5112897;28;20211;-52
2022/01/06 11:12:58;;;;;;;25.63;8.65;;;5.70;99.90;;;;;;5112556;28;20215;-51
2022/01/06 11:15:24;;;;;;;16.90;7.20;;;5.70;99.90;;;;;;5113014;28;20177;-52
2022/01/06 11:17:51;;;;;;;16.52;7.20;;;5.60;99.90;;;;;;5094265;28;20168;-52
2022/01/06 11:20:23;;;;;;;17.42;6.75;;;5.70;99.90;;;;;;5113004;28;20168;-51
2022/01/06 11:22:52;;;;;;;17.85;7.25;;;5.80;99.90;;;;;;5112882;28;20257;-51
2022/01/06 11:25:28;;;;;;;16.08;7.78;;;5.80;99.90;;;;;;5112725;28;20263;-52
2022/01/06 11:28:01;;;;;;;18.50;7.20;;;6.00;99.90;;;;;;5112942;28;20176;-51
2022/01/06 11:30:38;;;;;;;16.65;6.97;;;6.00;99.90;;;;;;5112980;28;20566;-51
2022/01/06 11:33:04;;;;;;;19.33;7.68;;;6.10;99.90;;;;;;5094227;28;20526;-51
2022/01/06 11:35:53;;;;;;;15.18;6.72;;;6.10;99.90;;;;;;5112986;28;20172;-51
2022/01/06 11:38:20;;;;;;;21.42;6.72;;;6.20;99.90;;;;;;5112379;28;20176;-51
2022/01/06 11:40:49;;;;;;;16.42;6.60;;;6.10;99.90;;;;;;5110963;28;20205;-51
2022/01/06 11:43:14;;;;;;;13.30;6.47;;;6.20;99.90;;;;;;5111060;28;20165;-51
2022/01/06 11:45:40;;;;;;;23.45;6.75;;;6.30;99.90;;;;;;5110838;28;20192;-51
2022/01/06 11:48:09;;;;;;;18.50;7.57;;;6.30;99.90;;;;;;5111466;28;20256;-51
2022/01/06 11:50:42;;;;;;;16.38;6.28;;;6.40;99.90;;;;;;5110931;28;20204;-51
2022/01/06 11:53:08;;;;;;;17.95;6.40;;;6.40;99.90;;;;;;5111115;28;20192;-51
2022/01/06 11:55:43;;;;;;;23.20;7.95;;;6.50;99.90;;;;;;5111012;28;20237;-51
2022/01/06 11:58:14;;;;;;;18.85;7.15;;;6.40;99.90;;;;;;5093337;28;20232;-52
2022/01/06 12:00:42;;;;;;;11.73;5.47;;;6.30;99.90;;;;;;5110573;28;20222;-51
2022/01/06 12:03:12;;;;;;;14.20;6.88;;;6.20;99.90;;;;;;5111361;28;20247;-52
2022/01/06 12:05:49;;;;;;;24.42;6.70;;;6.30;99.90;;;;;;5112361;28;20169;-52
2022/01/06 12:08:20;;;;;;;14.32;6.38;;;6.40;99.90;;;;;;5112078;28;20237;-51
2022/01/06 12:10:50;;;;;;;29.60;8.35;;;6.40;99.90;;;;;;5111787;28;20287;-53
2022/01/06 12:13:17;;;;;;;13.10;5.68;;;6.40;99.90;;;;;;5110387;28;20303;-52
2022/01/06 12:15:54;;;;;;;20.10;7.00;;;6.50;99.90;;;;;;5110974;28;20169;-52
2022/01/06 12:18:28;;;;;;;19.27;7.72;;;6.60;99.90;;;;;;5110824;28;20160;-52
2022/01/06 12:20:57;;;;;;;18.70;7.18;;;6.70;99.90;;;;;;5111139;28;20515;-52
2022/01/06 12:23:24;;;;;;;16.48;6.55;;;6.90;99.90;;;;;;5111774;28;20220;-51
2022/01/06 12:26:04;;;;;;;19.52;6.30;;;6.90;99.90;;;;;;5113113;28;20169;-51
2022/01/06 12:28:32;;;;;;;12.32;6.10;;;7.00;99.90;;;;;;5114536;28;20164;-51
2022/01/06 12:30:59;;;;;;;13.52;5.30;;;7.10;99.90;;;;;;5115765;28;20204;-52
2022/01/06 12:33:26;;;;;;;10.35;6.05;;;7.00;99.90;;;;;;5114701;28;20739;-51
2022/01/06 12:35:53;;;;;;;13.52;6.20;;;6.80;99.90;;;;;;5115997;28;20169;-52
2022/01/06 12:38:45;;;;;;;17.50;6.93;;;6.70;99.90;;;;;;5115923;28;20544;-51
2022/01/06 12:41:11;;;;;;;17.92;6.57;;;6.90;99.90;;;;;;5111455;28;20580;-51
2022/01/06 12:43:42;;;;;;;21.33;6.30;;;6.80;99.90;;;;;;5116057;28;20169;-51
2022/01/06 12:46:16;;;;;;;16.25;7.68;;;6.80;99.90;;;;;;5116081;28;20210;-52
2022/01/06 12:48:50;;;;;;;18.40;9.52;;;6.90;99.90;;;;;;5114391;28;20598;-51
2022/01/06 12:51:22;;;;;;;18.80;8.98;;;6.90;99.90;;;;;;5115305;28;20259;-51
2022/01/06 12:53:49;;;;;;;14.98;6.82;;;6.80;99.90;;;;;;5115944;28;20164;-52